Terminal Aerodrome Forecast
Issued by NWS

Home | Current Version | Previous Version | Text Only | Print | Product List | Glossary Off
Versions: 1 2 3 4 5 6 7 8 9 10 11 12 13 14 15 16 17 18 19 20 21 22 23 24 25

000
FTUS45 KGGW 012300
TAFOLF
TAF
KOLF 012320Z 0200/0224 23007KT P6SM SCT050
     FM021200 VRB06KT P6SM BKN250 WS020/21035KT
     FM021800 23013KT P6SM BKN250
     FM022100 29016KT P6SM VCSH BKN050=

USA.gov is the U.S. government's official web portal to all federal, state and local government web resources and services.